createdAt,value
2023-02-17T00:02:46.181Z,-4.8
2023-02-17T00:08:10.756Z,-4.9
2023-02-17T00:13:48.189Z,-5
2023-02-17T00:19:25.973Z,-4.9
2023-02-17T00:24:47.899Z,-5.1
2023-02-17T00:30:24.894Z,-4.9
2023-02-17T00:36:02.386Z,-4.9
2023-02-17T00:41:39.819Z,-4.9
2023-02-17T00:47:16.987Z,-4.9
2023-02-17T00:52:54.728Z,-4.9
2023-02-17T00:58:31.800Z,-4.9
2023-02-17T01:03:53.725Z,-5
2023-02-17T01:09:31.007Z,-5
2023-02-17T01:14:53.172Z,-5.1
2023-02-17T01:20:30.385Z,-5.1
2023-02-17T01:26:07.414Z,-5.2
2023-02-17T01:31:45.241Z,-5.2
2023-02-17T01:37:07.677Z,-5.1
2023-02-17T01:42:44.943Z,-5
2023-02-17T01:48:07.158Z,-4.9
2023-02-17T01:53:28.298Z,-4.9
2023-02-17T01:59:05.871Z,-4.8
2023-02-17T02:04:44.160Z,-4.8
2023-02-17T02:10:21.207Z,-4.8
2023-02-17T02:15:58.326Z,-4.8
2023-02-17T02:21:35.337Z,-4.8
2023-02-17T02:27:12.122Z,-4.8
2023-02-17T02:32:50.206Z,-4.8
2023-02-17T02:38:27.278Z,-4.8
2023-02-17T02:43:48.824Z,-4.8
2023-02-17T02:49:11.209Z,-4.8
2023-02-17T02:54:17.791Z,-4.8
2023-02-17T02:59:54.278Z,-4.6
2023-02-17T03:05:31.391Z,-4.6
2023-02-17T03:11:08.371Z,-4.5
2023-02-17T03:16:45.167Z,-4.4
2023-02-17T03:22:22.204Z,-4.4
2023-02-17T03:27:59.857Z,-4.3
2023-02-17T03:33:37.796Z,-4.3
2023-02-17T03:39:00.029Z,-4.3
2023-02-17T03:44:36.754Z,-4.3
2023-02-17T03:50:13.527Z,-4.2
2023-02-17T03:55:35.342Z,-4.1
2023-02-17T04:01:12.703Z,-4.2
2023-02-17T04:06:50.106Z,-4.3
2023-02-17T04:12:27.865Z,-4.3
2023-02-17T04:18:05.107Z,-4.2
2023-02-17T04:23:42.144Z,-4.2
2023-02-17T04:29:03.485Z,-4.2
2023-02-17T04:34:30.059Z,-4.3
2023-02-17T04:40:10.257Z,-4.3
2023-02-17T04:45:48.008Z,-4.3
2023-02-17T04:51:25.384Z,-4.3
2023-02-17T04:57:02.149Z,-4.2
2023-02-17T05:02:24.308Z,-4.3
2023-02-17T05:08:02.312Z,-4.3
2023-02-17T05:13:39.568Z,-4
2023-02-17T05:19:17.846Z,-3.9
2023-02-17T05:24:55.833Z,-3.9
2023-02-17T05:35:55.796Z,-3.7
2023-02-17T05:41:33.808Z,-3.6
2023-02-17T05:47:11.267Z,-3.4
2023-02-17T05:52:48.687Z,-3.3
2023-02-17T05:58:26.226Z,-2.9
2023-02-17T06:04:04.346Z,-2.6
2023-02-17T06:09:41.833Z,-2.1
2023-02-17T06:15:03.316Z,-1.4
2023-02-17T06:20:43.289Z,-0.8
2023-02-17T06:26:05.570Z,-0.1
2023-02-17T06:31:44.358Z,1.1
2023-02-17T06:37:20.561Z,2.8
2023-02-17T06:42:58.046Z,6.1
2023-02-17T06:48:36.132Z,10.9
2023-02-17T06:54:13.148Z,14.8
2023-02-17T06:59:50.265Z,20
2023-02-17T07:05:29.432Z,25.6
2023-02-17T07:10:51.098Z,31.6
2023-02-17T07:16:13.223Z,37.1
2023-02-17T07:21:51.714Z,41.9
2023-02-17T07:27:29.255Z,46.4
2023-02-17T07:32:51.564Z,43.8
2023-02-17T07:38:13.441Z,39.4
2023-02-17T07:43:52.852Z,34.1
2023-02-17T07:49:31.738Z,35
2023-02-17T07:55:08.922Z,36.9
2023-02-17T08:00:46.606Z,38.9
2023-02-17T08:06:24.152Z,40.6
2023-02-17T08:12:03.697Z,41.4
2023-02-17T08:17:40.855Z,42.8
2023-02-17T08:23:17.806Z,44.1
2023-02-17T08:28:55.705Z,44.6
2023-02-17T08:34:34.071Z,45.9
2023-02-17T08:40:10.449Z,46.9
2023-02-17T08:45:32.449Z,47.9
2023-02-17T08:51:11.687Z,49.3
2023-02-17T08:56:45.962Z,50.5
2023-02-17T09:02:24.186Z,51.8
2023-02-17T09:07:47.389Z,52.9
2023-02-17T09:13:11.320Z,53.3
2023-02-17T09:18:49.512Z,54.6
2023-02-17T09:24:34.424Z,55.9
2023-02-17T09:29:56.023Z,56.8
2023-02-17T09:35:19.718Z,57.4
2023-02-17T09:40:58.762Z,58.3
2023-02-17T09:46:36.480Z,58.5
2023-02-17T09:52:08.394Z,58
2023-02-17T09:57:32.810Z,58.1
2023-02-17T10:03:13.080Z,58
2023-02-17T10:08:51.757Z,58.2
2023-02-17T10:13:58.990Z,58.9
2023-02-17T10:19:38.435Z,59.5
2023-02-17T10:25:15.675Z,58.9
2023-02-17T10:30:53.685Z,57.3
2023-02-17T10:36:35.088Z,57.7
2023-02-17T10:41:41.902Z,58.6
2023-02-17T10:46:52.142Z,59.4
2023-02-17T10:52:17.655Z,60.4
2023-02-17T10:57:54.025Z,60.7
2023-02-17T11:03:16.833Z,60.9
2023-02-17T11:08:22.351Z,61.2
2023-02-17T11:14:00.205Z,61.9
2023-02-17T11:19:41.004Z,61.8
2023-02-17T11:25:05.481Z,61.9
2023-02-17T11:30:43.264Z,61.9
2023-02-17T11:36:21.833Z,61.5
2023-02-17T11:41:44.108Z,61.4
2023-02-17T11:47:20.840Z,61.4
2023-02-17T11:52:58.398Z,61.8
2023-02-17T11:58:36.261Z,61.8
2023-02-17T12:04:12.825Z,61.4
2023-02-17T12:09:35.511Z,61.1
2023-02-17T12:14:56.896Z,60.6
2023-02-17T12:20:03.563Z,60.5
2023-02-17T12:25:42.805Z,60.6
2023-02-17T12:31:04.969Z,60.3
2023-02-17T12:36:27.249Z,60.1
2023-02-17T12:41:49.112Z,59.4
2023-02-17T12:47:10.977Z,58.5
2023-02-17T12:52:34.636Z,58.6
2023-02-17T12:57:58.099Z,59.3
2023-02-17T13:03:20.390Z,59
2023-02-17T13:08:42.329Z,58.4
2023-02-17T13:19:10.237Z,60.6
2023-02-17T13:24:32.543Z,62.3
2023-02-17T13:29:54.161Z,62.4
2023-02-17T13:35:15.992Z,62.4
2023-02-17T13:40:39.053Z,62.3
2023-02-17T13:46:02.954Z,62
2023-02-17T13:51:40.783Z,61.3
2023-02-17T13:57:04.603Z,60.1
2023-02-17T14:02:35.667Z,58.6
2023-02-17T14:07:57.961Z,57.3
2023-02-17T14:13:20.607Z,55.8
2023-02-17T14:19:01.060Z,53.4
2023-02-17T14:24:48.282Z,49.9
2023-02-17T14:30:25.340Z,46.8
2023-02-17T14:36:03.063Z,45
2023-02-17T14:41:40.694Z,43.6
2023-02-17T14:47:18.576Z,42.1
2023-02-17T14:52:41.756Z,40.4
2023-02-17T14:58:18.688Z,38.6
2023-02-17T15:03:56.091Z,36.7
2023-02-17T15:09:38.415Z,34.8
2023-02-17T15:15:14.798Z,32.8
2023-02-17T15:20:52.776Z,30.9
2023-02-17T15:26:34.676Z,29.3
2023-02-17T15:32:14.298Z,27.6
2023-02-17T15:37:52.677Z,25.9
2023-02-17T15:43:17.722Z,24.6
2023-02-17T15:48:57.033Z,23
2023-02-17T15:54:19.807Z,21.6
2023-02-17T15:59:57.662Z,20.1
2023-02-17T16:05:36.324Z,18.6
2023-02-17T16:11:13.625Z,17.3
2023-02-17T16:16:51.125Z,16.1
2023-02-17T16:22:28.704Z,15
2023-02-17T16:27:51.642Z,14
2023-02-17T16:33:15.292Z,13.2
2023-02-17T16:38:39.702Z,12.5
2023-02-17T16:44:17.788Z,11.9
2023-02-17T16:49:58.449Z,11.3
2023-02-17T16:55:35.814Z,10.7
2023-02-17T17:01:13.557Z,10.3
2023-02-17T17:06:52.714Z,9.8
2023-02-17T17:12:50.474Z,9.4
2023-02-17T17:18:12.834Z,9
2023-02-17T17:23:49.630Z,8.6
2023-02-17T17:29:27.319Z,8.3
2023-02-17T17:34:50.383Z,8.1
2023-02-17T17:40:14.992Z,7.9
2023-02-17T17:45:38.940Z,7.8
2023-02-17T17:50:43.608Z,7.6
2023-02-17T17:56:21.147Z,7.4
2023-02-17T18:02:02.101Z,7.1
2023-02-17T18:07:23.312Z,6.9
2023-02-17T18:13:13.790Z,6.7
2023-02-17T18:18:51.268Z,6.4
2023-02-17T18:24:28.669Z,6.3
2023-02-17T18:30:10.324Z,6.1
2023-02-17T18:35:48.929Z,5.9
2023-02-17T18:41:26.829Z,5.6
2023-02-17T18:47:03.853Z,5.3
2023-02-17T18:52:26.058Z,4.9
2023-02-17T18:57:47.284Z,4.6
2023-02-17T19:03:24.790Z,4.3
2023-02-17T19:09:01.586Z,4
2023-02-17T19:14:37.755Z,3.9
2023-02-17T19:20:15.033Z,3.8
2023-02-17T19:25:52.375Z,3.7
2023-02-17T19:31:30.479Z,3.6
2023-02-17T19:37:07.931Z,3.4
2023-02-17T19:42:47.606Z,3.3
2023-02-17T19:48:09.617Z,3.2
2023-02-17T19:53:46.600Z,3.1
2023-02-17T19:59:24.068Z,3.1
2023-02-17T20:04:45.448Z,3
2023-02-17T20:10:22.917Z,2.8
2023-02-17T20:16:04.191Z,2.8
2023-02-17T20:21:41.293Z,2.6
2023-02-17T20:27:18.682Z,2.6
2023-02-17T20:32:41.331Z,2.7
2023-02-17T20:38:19.252Z,2.6
2023-02-17T20:43:41.570Z,2.4
2023-02-17T20:49:20.691Z,2.2
2023-02-17T20:54:58.178Z,2
2023-02-17T21:00:35.870Z,1.9
2023-02-17T21:06:14.552Z,1.8
2023-02-17T21:11:50.619Z,1.7
2023-02-17T21:17:28.743Z,1.6
2023-02-17T21:23:05.918Z,1.5
2023-02-17T21:28:43.044Z,1.4
2023-02-17T21:34:21.074Z,1.4
2023-02-17T21:39:58.035Z,1.3
2023-02-17T21:45:21.406Z,1.3
2023-02-17T21:50:44.060Z,1.4
2023-02-17T21:56:06.368Z,1.3
2023-02-17T22:01:43.136Z,1.2
2023-02-17T22:07:04.343Z,1.1
2023-02-17T22:12:25.434Z,1.1
2023-02-17T22:18:01.502Z,1
2023-02-17T22:23:38.900Z,0.9
2023-02-17T22:29:15.615Z,0.8
2023-02-17T22:34:54.137Z,0.6
2023-02-17T22:40:30.471Z,0.4
2023-02-17T22:46:07.745Z,0.3
2023-02-17T22:51:45.203Z,0.2
2023-02-17T22:57:22.562Z,0
2023-02-17T23:02:44.181Z,-0.1
2023-02-17T23:08:09.313Z,-0.4
2023-02-17T23:13:46.866Z,-0.4
2023-02-17T23:19:24.609Z,-0.6
2023-02-17T23:25:01.673Z,-0.7
2023-02-17T23:30:39.461Z,-0.8
2023-02-17T23:36:16.729Z,-0.9
2023-02-17T23:41:38.570Z,-1.1
2023-02-17T23:47:16.936Z,-1.1
2023-02-17T23:52:54.778Z,-1.3
2023-02-17T23:58:32.010Z,-1.4
